Time;durP1;ratioP1;P1;durP2;ratioP2;P2;SDS_P1;SDS_P2;PMS_P1;PMS_P2;Temp;Humidity;BMP_temperature;BMP_pressure;BME280_temperature;BME280_humidity;BME280_pressure;Samples;Min_cycle;Max_cycle;Signal;HPM_P1;HPM_P2
2023/07/26 00:01:45;;;;;;;5.20;3.10;;;;;;;18.95;100.00;99133.94;5588554;31;33724;-64
2023/07/26 00:04:48;;;;;;;7.07;3.25;;;;;;;18.65;100.00;99145.13;5588604;31;33805;-64
2023/07/26 00:07:51;;;;;;;6.20;2.80;;;;;;;18.12;100.00;99153.78;5587837;31;34453;-63
2023/07/26 00:10:54;;;;;;;13.23;3.00;;;;;;;17.92;100.00;99156.97;5588454;31;34790;-65
2023/07/26 00:13:57;;;;;;;5.90;3.10;;;;;;;17.95;100.00;99161.84;5588415;31;33745;-64
2023/07/26 00:17:00;;;;;;;4.00;2.90;;;;;;;17.72;100.00;99164.69;5588419;31;33680;-64
2023/07/26 00:20:03;;;;;;;4.03;3.00;;;;;;;17.58;100.00;99166.03;5587598;31;34476;-64
2023/07/26 00:23:06;;;;;;;8.10;3.90;;;;;;;17.37;100.00;99152.28;5588334;31;33875;-65
2023/07/26 00:26:09;;;;;;;6.03;3.20;;;;;;;17.33;100.00;99126.22;5587760;31;34450;-65
2023/07/26 00:29:12;;;;;;;6.00;3.10;;;;;;;17.32;100.00;99120.03;5588175;31;34516;-65
2023/07/26 00:32:18;;;;;;;3.80;2.87;;;;;;;17.39;100.00;99138.63;5588853;31;33800;-64
2023/07/26 00:35:25;;;;;;;5.68;2.80;;;;;;;17.33;100.00;99121.62;5590691;31;34366;-65
2023/07/26 00:38:28;;;;;;;3.35;2.37;;;;;;;17.23;100.00;99121.47;5590729;31;33697;-64
2023/07/26 00:41:31;;;;;;;4.15;2.67;;;;;;;17.25;100.00;99108.66;5591194;31;33846;-64
2023/07/26 00:44:35;;;;;;;4.57;3.12;;;;;;;17.17;100.00;99089.47;5590703;31;33969;-64
2023/07/26 00:47:38;;;;;;;4.80;2.67;;;;;;;17.09;100.00;99087.19;5590074;31;33693;-64
2023/07/26 00:50:46;;;;;;;4.10;3.08;;;;;;;17.18;100.00;99066.97;5590754;31;33770;-64
2023/07/26 00:53:50;;;;;;;5.45;3.60;;;;;;;17.11;100.00;99058.28;5590631;31;34238;-65
2023/07/26 00:56:53;;;;;;;5.68;3.58;;;;;;;17.17;100.00;99058.13;5590727;31;33383;-63
2023/07/26 00:59:57;;;;;;;6.10;4.07;;;;;;;17.29;100.00;99042.78;5589979;31;32257;-65
2023/07/26 01:03:00;;;;;;;7.07;3.90;;;;;;;17.22;100.00;99044.81;5590533;31;33797;-63
2023/07/26 01:06:15;;;;;;;6.25;4.22;;;;;;;17.22;100.00;99049.34;5590518;31;33851;-64
2023/07/26 01:09:30;;;;;;;8.23;4.53;;;;;;;17.23;100.00;99049.09;5589804;31;33796;-64
2023/07/26 01:13:11;;;;;;;5.75;4.10;;;;;;;17.18;100.00;99049.03;5590563;31;33892;-63
2023/07/26 01:16:15;;;;;;;7.15;4.78;;;;;;;17.13;100.00;99048.13;5529747;32;33973;-64
2023/07/26 01:19:19;;;;;;;6.12;4.50;;;;;;;17.18;100.00;99046.34;5530373;32;34443;-64
2023/07/26 01:22:22;;;;;;;7.05;4.72;;;;;;;17.12;100.00;99030.44;5530503;32;33823;-64
2023/07/26 01:25:25;;;;;;;7.20;4.43;;;;;;;17.08;100.00;99032.78;5530086;32;34307;-64
2023/07/26 01:28:30;;;;;;;5.22;3.97;;;;;;;17.11;100.00;99026.13;5529966;32;33811;-63
2023/07/26 01:31:35;;;;;;;7.07;3.85;;;;;;;17.16;100.00;99007.44;5530123;32;33826;-64
2023/07/26 01:34:39;;;;;;;4.35;3.62;;;;;;;17.17;100.00;99003.72;5517171;32;33862;-63
2023/07/26 01:37:43;;;;;;;5.85;4.47;;;;;;;17.20;100.00;99001.34;5517062;32;33597;-64
2023/07/26 01:40:47;;;;;;;5.85;3.80;;;;;;;17.26;100.00;99002.25;5529853;32;34434;-64
2023/07/26 01:43:50;;;;;;;5.90;3.78;;;;;;;17.33;100.00;99001.00;5529919;32;34361;-64
2023/07/26 01:46:54;;;;;;;5.97;3.45;;;;;;;17.35;100.00;99000.78;5529805;32;33586;-63
2023/07/26 01:49:58;;;;;;;5.57;4.00;;;;;;;17.28;100.00;98992.09;5559080;31;34663;-64
2023/07/26 01:53:01;;;;;;;5.70;4.12;;;;;;;17.30;100.00;98988.09;5590397;31;33828;-66
2023/07/26 01:56:04;;;;;;;5.28;3.80;;;;;;;17.32;100.00;99002.09;5589234;31;33790;-64
2023/07/26 01:59:07;;;;;;;5.40;3.53;;;;;;;17.31;100.00;99010.37;5590035;31;33823;-65
2023/07/26 02:02:11;;;;;;;6.53;3.60;;;;;;;17.33;100.00;99027.81;5589201;31;33806;-64
2023/07/26 02:05:16;;;;;;;4.37;3.60;;;;;;;17.42;100.00;99038.97;5589122;31;34435;-65
2023/07/26 02:08:19;;;;;;;6.78;3.20;;;;;;;17.51;100.00;99050.09;5589976;31;33349;-64
2023/07/26 02:11:23;;;;;;;6.10;3.78;;;;;;;17.55;100.00;99046.66;5590020;31;34914;-64
2023/07/26 02:14:29;;;;;;;6.35;3.35;;;;;;;17.65;100.00;99046.03;5589993;31;34408;-65
2023/07/26 02:17:33;;;;;;;3.75;3.20;;;;;;;17.67;100.00;99054.66;5589818;31;34455;-64
2023/07/26 02:20:36;;;;;;;4.62;3.20;;;;;;;17.82;100.00;99057.53;5589119;31;34771;-64
2023/07/26 02:23:39;;;;;;;4.55;3.30;;;;;;;17.93;100.00;99059.31;5589836;31;33958;-64
2023/07/26 02:26:42;;;;;;;5.10;3.90;;;;;;;17.90;100.00;99051.78;5589738;31;33803;-65
2023/07/26 02:29:45;;;;;;;5.07;3.65;;;;;;;17.88;100.00;99061.94;5589850;31;33745;-64
2023/07/26 02:32:48;;;;;;;6.10;3.47;;;;;;;17.93;100.00;99063.87;5589064;31;33734;-65
2023/07/26 02:35:51;;;;;;;5.40;3.40;;;;;;;17.90;100.00;99065.19;5588978;31;33840;-66
2023/07/26 02:38:54;;;;;;;6.37;3.53;;;;;;;17.93;100.00;99067.38;5589671;31;33606;-65
2023/07/26 02:41:57;;;;;;;7.53;3.90;;;;;;;17.95;100.00;99067.94;5589589;31;34278;-65
2023/07/26 02:45:00;;;;;;;4.75;3.58;;;;;;;17.98;100.00;99070.13;5589713;31;32099;-64
2023/07/26 02:48:06;;;;;;;6.87;4.20;;;;;;;17.95;100.00;99067.94;5588823;31;33835;-64
2023/07/26 02:51:09;;;;;;;6.20;3.80;;;;;;;17.98;100.00;99061.25;5589586;31;34393;-65
2023/07/26 02:54:12;;;;;;;5.75;3.70;;;;;;;18.00;100.00;99061.84;5588697;31;33723;-65
2023/07/26 02:57:15;;;;;;;5.72;3.53;;;;;;;18.07;100.00;99065.13;5589252;31;33865;-63
2023/07/26 03:00:18;;;;;;;6.37;4.10;;;;;;;18.14;100.00;99069.28;5589470;31;33707;-65
2023/07/26 03:03:21;;;;;;;4.37;3.33;;;;;;;18.21;100.00;99071.75;5588698;31;33820;-65
2023/07/26 03:06:26;;;;;;;5.65;3.67;;;;;;;18.15;100.00;99070.09;5588965;31;33679;-65
2023/07/26 03:09:29;;;;;;;8.38;4.43;;;;;;;18.13;100.00;99069.53;5589543;31;34432;-64
2023/07/26 03:12:32;;;;;;;4.95;4.15;;;;;;;18.00;100.00;99062.66;5588998;31;34559;-65
2023/07/26 03:15:39;;;;;;;4.53;4.10;;;;;;;17.97;100.00;99043.53;5588854;31;33886;-64
2023/07/26 03:18:43;;;;;;;7.55;4.28;;;;;;;17.94;100.00;99052.09;5588566;31;33809;-65
2023/07/26 03:21:46;;;;;;;5.80;4.30;;;;;;;17.93;100.00;99059.31;5575627;31;33404;-64
2023/07/26 03:24:52;;;;;;;7.07;4.47;;;;;;;17.88;100.00;99071.84;5589568;31;33407;-66
2023/07/26 03:27:55;;;;;;;7.03;4.68;;;;;;;17.86;100.00;99053.34;5588982;31;34441;-65
2023/07/26 03:31:01;;;;;;;7.20;4.62;;;;;;;17.81;100.00;99054.03;5589286;31;33893;-64
2023/07/26 03:34:04;;;;;;;6.50;4.70;;;;;;;17.80;100.00;99068.53;5588993;31;33868;-64
2023/07/26 03:37:07;;;;;;;7.15;4.97;;;;;;;17.80;100.00;99062.34;5588951;31;33683;-64
2023/07/26 03:40:10;;;;;;;8.45;5.05;;;;;;;17.75;100.00;99070.34;5588984;31;33738;-65
2023/07/26 03:43:15;;;;;;;7.37;5.30;;;;;;;17.75;100.00;99087.25;5588263;31;33769;-64
2023/07/26 03:46:17;;;;;;;9.00;5.43;;;;;;;17.78;100.00;99096.66;5588795;31;33747;-64
2023/07/26 03:49:21;;;;;;;7.40;5.28;;;;;;;17.69;100.00;99100.81;5587920;31;34586;-64
2023/07/26 03:52:23;;;;;;;12.68;5.32;;;;;;;17.72;100.00;99097.62;5588740;31;33808;-64
2023/07/26 03:55:27;;;;;;;6.90;5.85;;;;;;;17.82;100.00;99119.25;5588766;31;33720;-63
2023/07/26 03:58:30;;;;;;;7.45;5.43;;;;;;;17.78;100.00;99129.66;5588623;31;34213;-64
2023/07/26 04:01:35;;;;;;;7.53;5.72;;;;;;;17.88;100.00;99129.00;5587969;31;34032;-64
2023/07/26 04:04:38;;;;;;;7.30;5.72;;;;;;;17.98;100.00;99126.47;5588577;31;34868;-66
2023/07/26 04:07:41;;;;;;;10.60;7.37;;;;;;;17.97;100.00;99130.22;5590700;31;33832;-64
2023/07/26 04:10:44;;;;;;;8.77;5.57;;;;;;;18.03;100.00;99117.69;5590385;31;34009;-65
2023/07/26 04:13:47;;;;;;;6.80;5.00;;;;;;;18.01;100.00;99112.56;5590991;31;34455;-64
2023/07/26 04:16:51;;;;;;;7.57;4.62;;;;;;;18.06;100.00;99118.00;5591078;31;33589;-66
2023/07/26 04:19:55;;;;;;;5.62;4.50;;;;;;;18.00;100.00;99134.28;5590028;31;33816;-68
2023/07/26 04:22:58;;;;;;;6.45;4.57;;;;;;;18.19;100.00;99138.31;5591207;31;33779;-63
2023/07/26 04:26:00;;;;;;;4.03;3.37;;;;;;;18.27;100.00;99145.94;5589995;31;33710;-64
2023/07/26 04:29:04;;;;;;;4.78;2.85;;;;;;;18.12;100.00;99153.78;5590005;31;33851;-65
2023/07/26 04:32:07;;;;;;;5.07;2.60;;;;;;;18.14;100.00;99163.22;5590606;31;34525;-64
2023/07/26 04:35:10;;;;;;;5.05;2.25;;;;;;;18.15;100.00;99164.03;5590588;31;33897;-63
2023/07/26 04:38:13;;;;;;;6.72;2.20;;;;;;;18.17;100.00;99172.63;5589735;31;34315;-68
2023/07/26 04:41:16;;;;;;;3.28;2.30;;;;;;;18.18;100.00;99164.34;5591128;31;33734;-64
2023/07/26 04:44:19;;;;;;;3.85;1.95;;;;;;;18.16;100.00;99158.41;5589931;31;33718;-65
2023/07/26 04:47:24;;;;;;;3.87;1.85;;;;;;;18.17;100.00;99148.47;5589691;31;33861;-65
2023/07/26 04:50:27;;;;;;;3.75;1.92;;;;;;;18.15;100.00;99156.78;5589616;31;34574;-65
2023/07/26 04:53:30;;;;;;;5.75;2.10;;;;;;;18.24;100.00;99166.06;5590919;31;34433;-66
2023/07/26 04:56:33;;;;;;;3.78;2.08;;;;;;;18.16;100.00;99158.41;5576797;31;33773;-66
2023/07/26 04:59:37;;;;;;;3.37;1.90;;;;;;;18.07;100.00;99146.47;5591036;31;34597;-64
2023/07/26 05:02:40;;;;;;;3.90;1.70;;;;;;;18.06;100.00;99160.94;5589841;31;34832;-66
2023/07/26 05:05:50;;;;;;;5.07;1.83;;;;;;;18.04;100.00;99159.56;5590512;31;33696;-66
2023/07/26 05:08:53;;;;;;;6.47;1.80;;;;;;;18.23;100.00;99169.78;5589620;31;34655;-65
2023/07/26 05:11:56;;;;;;;4.12;1.70;;;;;;;18.40;100.00;99164.38;5590391;31;34492;-64
2023/07/26 05:14:59;;;;;;;5.25;1.70;;;;;;;18.43;100.00;99168.44;5590635;31;33662;-64
2023/07/26 05:18:02;;;;;;;3.20;1.73;;;;;;;18.36;100.00;99165.13;5589004;31;33789;-63
2023/07/26 05:21:05;;;;;;;5.03;1.70;;;;;;;18.30;100.00;99156.19;5590617;31;34328;-64
2023/07/26 05:24:08;;;;;;;6.37;1.65;;;;;;;18.53;100.00;99168.59;5590333;31;33826;-64
2023/07/26 05:27:12;;;;;;;5.10;1.37;;;;;;;18.36;100.00;99165.94;5589950;31;33839;-64
2023/07/26 05:30:17;;;;;;;7.60;1.62;;;;;;;18.28;100.00;99179.78;5590171;31;34563;-63
2023/07/26 05:33:20;;;;;;;4.95;1.60;;;;;;;18.27;100.00;99175.47;5590255;31;33685;-64
2023/07/26 05:36:24;;;;;;;2.20;1.10;;;;;;;18.28;100.00;99174.41;5590039;31;34383;-62
2023/07/26 05:39:26;;;;;;;3.50;1.48;;;;;;;18.28;100.00;99185.16;5589995;31;33782;-65
2023/07/26 05:42:32;;;;;;;4.18;1.27;;;;;;;18.16;100.00;99190.63;5589975;31;33706;-64
2023/07/26 05:45:35;;;;;;;4.80;1.75;;;;;;;18.32;100.00;99188.97;5589420;31;33706;-65
2023/07/26 05:48:39;;;;;;;3.55;1.65;;;;;;;18.18;100.00;99190.38;5589240;31;33348;-63
2023/07/26 05:51:42;;;;;;;3.90;1.60;;;;;;;18.10;100.00;99180.06;5590005;31;33731;-62
2023/07/26 05:54:45;;;;;;;4.25;1.50;;;;;;;18.12;100.00;99177.94;5589163;31;33797;-63
2023/07/26 05:57:48;;;;;;;4.57;1.50;;;;;;;18.16;100.00;99204.03;5589138;31;33850;-64
2023/07/26 06:00:51;;;;;;;2.90;1.70;;;;;;;18.12;100.00;99212.81;5589941;31;34582;-62
2023/07/26 06:03:54;;;;;;;3.05;1.70;;;;;;;18.23;100.00;99218.13;5589948;31;33732;-63
2023/07/26 06:06:57;;;;;;;2.50;1.42;;;;;;;18.15;100.00;99223.09;5590037;31;33819;-63
2023/07/26 06:10:00;;;;;;;2.83;1.80;;;;;;;18.23;100.00;99217.31;5589209;31;33809;-64
2023/07/26 06:13:03;;;;;;;3.50;1.30;;;;;;;18.38;100.00;99220.22;5589848;31;33293;-64
2023/07/26 06:16:10;;;;;;;5.30;1.92;;;;;;;18.26;100.00;99227.53;5589908;31;33791;-63
2023/07/26 06:19:13;;;;;;;3.35;1.58;;;;;;;18.04;100.00;99222.13;5589880;31;33888;-65
2023/07/26 06:22:16;;;;;;;5.25;1.75;;;;;;;17.93;100.00;99219.50;5589851;31;33924;-66
2023/07/26 06:25:19;;;;;;;3.40;1.87;;;;;;;17.88;100.00;99219.41;5589855;31;33848;-66
2023/07/26 06:28:22;;;;;;;3.45;2.00;;;;;;;17.88;100.00;99222.09;5589138;31;33677;-64
2023/07/26 06:31:25;;;;;;;6.00;1.85;;;;;;;17.94;100.00;99224.63;5587394;31;33768;-63
2023/07/26 06:34:29;;;;;;;3.25;2.03;;;;;;;17.96;100.00;99217.13;5588921;31;34504;-64
2023/07/26 06:37:31;;;;;;;3.17;1.62;;;;;;;18.24;100.00;99227.81;5589724;31;33780;-64
2023/07/26 06:40:35;;;;;;;4.18;1.73;;;;;;;18.43;100.00;99214.09;5589810;31;33874;-63
2023/07/26 06:43:38;;;;;;;5.05;1.80;;;;;;;18.68;100.00;99217.19;5589415;31;33782;-63
2023/07/26 06:46:41;;;;;;;3.40;1.95;;;;;;;18.60;100.00;99226.47;5588591;31;34816;-65
2023/07/26 06:49:44;;;;;;;4.80;1.90;;;;;;;18.66;100.00;99236.22;5589186;31;33853;-66
2023/07/26 06:52:48;;;;;;;3.83;1.75;;;;;;;18.74;100.00;99234.16;5589644;31;33827;-64
2023/07/26 06:55:57;;;;;;;3.25;1.70;;;;;;;18.39;100.00;99237.97;5589389;31;34401;-64
2023/07/26 06:59:01;;;;;;;2.72;1.60;;;;;;;18.29;100.00;99239.69;5588779;31;31830;-65
2023/07/26 07:02:05;;;;;;;3.22;1.75;;;;;;;17.93;100.00;99249.00;5589285;31;34521;-64
2023/07/26 07:05:08;;;;;;;4.93;1.85;;;;;;;17.80;100.00;99264.38;5589356;31;32364;-65
2023/07/26 07:08:11;;;;;;;3.53;1.67;;;;;;;17.57;100.00;99267.13;5589353;31;35299;-65
2023/07/26 07:11:14;;;;;;;4.20;1.92;;;;;;;17.61;100.00;99273.69;5589207;31;34777;-64
2023/07/26 07:14:18;;;;;;;4.55;2.00;;;;;;;17.46;100.00;99272.56;5588455;31;33754;-64
2023/07/26 07:17:21;;;;;;;4.97;1.90;;;;;;;17.61;100.00;99283.59;5589007;31;35255;-63
2023/07/26 07:20:24;;;;;;;3.12;1.80;;;;;;;17.48;100.00;99286.50;5588253;31;34800;-63
2023/07/26 07:23:29;;;;;;;8.07;2.00;;;;;;;17.47;100.00;99287.59;5589104;31;33958;-63
2023/07/26 07:26:32;;;;;;;3.47;1.80;;;;;;;17.28;100.00;99290.44;5589102;31;33581;-64
2023/07/26 07:29:35;;;;;;;4.00;2.12;;;;;;;17.06;100.00;99300.16;5589090;31;33771;-64
2023/07/26 07:32:42;;;;;;;3.80;1.65;;;;;;;16.99;100.00;99304.03;5588984;31;33946;-65
2023/07/26 07:35:45;;;;;;;2.47;1.77;;;;;;;16.98;100.00;99300.53;5588623;31;33818;-64
2023/07/26 07:38:48;;;;;;;4.37;1.77;;;;;;;17.04;100.00;99307.59;5588187;31;33649;-65
2023/07/26 07:41:52;;;;;;;2.75;1.67;;;;;;;17.01;100.00;99307.28;5588573;31;33849;-64
2023/07/26 07:44:55;;;;;;;3.15;2.05;;;;;;;17.01;100.00;99305.41;5588240;31;33928;-66
2023/07/26 07:47:58;;;;;;;4.40;2.00;;;;;;;17.02;100.00;99319.62;5587947;31;33827;-65
2023/07/26 07:51:01;;;;;;;3.60;1.92;;;;;;;16.93;100.00;99328.03;5581745;31;221826;-66
2023/07/26 07:54:04;;;;;;;2.60;1.87;;;;;;;16.92;100.00;99334.44;5588377;31;33940;-64
2023/07/26 07:57:07;;;;;;;6.22;2.10;;;;;;;16.92;100.00;99338.97;5588059;31;33810;-65
2023/07/26 08:00:11;;;;;;;3.00;2.10;;;;;;;16.83;100.00;99335.03;5588584;31;34491;-63
2023/07/26 08:03:14;;;;;;;3.17;2.15;;;;;;;16.67;100.00;99347.25;5588517;31;33719;-64
2023/07/26 08:06:17;;;;;;;4.00;1.95;;;;;;;16.61;100.00;99356.19;5588518;31;33743;-65
2023/07/26 08:09:20;;;;;;;4.78;2.12;;;;;;;16.51;100.00;99362.09;5588010;31;34433;-65
2023/07/26 08:12:23;;;;;;;6.43;2.35;;;;;;;16.47;100.00;99357.44;5588585;31;33740;-65
2023/07/26 08:15:32;;;;;;;7.15;2.35;;;;;;;16.38;100.00;99356.94;5588651;31;32388;-64
2023/07/26 08:18:37;;;;;;;10.85;2.35;;;;;;;16.31;100.00;99363.47;5587594;31;33720;-65
2023/07/26 08:21:40;;;;;;;5.35;2.00;;;;;;;16.22;100.00;99360.28;5587490;31;33875;-65
2023/07/26 08:24:43;;;;;;;6.70;2.25;;;;;;;16.20;100.00;99366.91;5587730;31;33850;-64
2023/07/26 08:27:46;;;;;;;4.65;2.12;;;;;;;16.20;100.00;99367.75;5588227;31;32971;-63
2023/07/26 08:30:49;;;;;;;3.92;1.87;;;;;;;16.28;100.00;99363.91;5588289;31;34399;-64
2023/07/26 08:33:52;;;;;;;2.83;1.95;;;;;;;16.35;100.00;99361.97;5588229;31;34119;-64
2023/07/26 08:36:55;;;;;;;6.25;2.22;;;;;;;16.30;100.00;99356.47;5588116;31;33744;-64
2023/07/26 08:39:59;;;;;;;4.15;2.12;;;;;;;16.33;100.00;99362.19;5587279;31;33750;-64
2023/07/26 08:43:05;;;;;;;3.20;2.30;;;;;;;16.37;100.00;99378.59;5587934;31;33844;-64
2023/07/26 08:46:09;;;;;;;82.60;5.55;;;;;;;16.40;100.00;99370.13;5587116;31;33659;-67
2023/07/26 08:49:13;;;;;;;6.40;2.28;;;;;;;16.43;100.00;99378.50;5587057;31;33721;-65
2023/07/26 08:52:18;;;;;;;6.15;2.33;;;;;;;16.51;100.00;99375.47;5587001;31;33707;-64
2023/07/26 08:55:21;;;;;;;5.00;1.90;;;;;;;16.53;100.00;99378.75;5590246;31;34445;-64
2023/07/26 08:58:25;;;;;;;12.75;2.97;;;;;;;16.59;100.00;99392.28;5590429;31;34401;-64
2023/07/26 09:01:29;;;;;;;3.97;2.17;;;;;;;16.85;100.00;99399.87;5589697;31;33095;-63
2023/07/26 09:04:48;;;;;;;5.87;1.95;;;;;;;16.90;100.00;99418.75;5589668;31;34032;-65
2023/07/26 09:07:51;;;;;;;4.47;1.87;;;;;;;16.92;100.00;99419.34;5589585;31;33828;-64
2023/07/26 09:10:54;;;;;;;3.62;1.83;;;;;;;17.00;100.00;99420.84;5590225;31;33445;-64
2023/07/26 09:13:59;;;;;;;5.87;2.00;;;;;;;17.02;100.00;99426.81;5590300;31;33244;-62
2023/07/26 09:17:04;;;;;;;3.00;1.80;;;;;;;17.07;100.00;99433.09;5590021;31;33713;-63
2023/07/26 09:20:22;;;;;;;6.75;1.80;;;;;;;17.17;100.00;99436.03;5590374;31;33730;-65
2023/07/26 09:23:25;;;;;;;1.87;1.48;;;;;;;17.25;100.00;99438.34;5589216;31;34407;-63
2023/07/26 09:26:34;;;;;;;4.10;1.80;;;;;;;17.34;100.00;99449.53;5590101;31;33756;-63
2023/07/26 09:29:40;;;;;;;5.82;1.80;;;;;;;17.50;100.00;99458.72;5590250;31;33819;-63
2023/07/26 09:32:43;;;;;;;3.72;1.70;;;;;;;17.53;100.00;99442.97;5590234;31;33760;-63
2023/07/26 09:35:52;;;;;;;8.10;2.05;;;;;;;17.70;100.00;99438.56;5589482;31;33759;-64
2023/07/26 09:38:55;;;;;;;3.50;1.50;;;;;;;17.72;100.00;99436.44;5589267;31;34377;-65
2023/07/26 09:42:08;;;;;;;5.32;1.98;;;;;;;17.87;100.00;99427.06;5590548;31;33838;-64
2023/07/26 09:45:21;;;;;;;3.53;1.70;;;;;;;17.90;100.00;99423.91;5589983;31;33720;-62
2023/07/26 09:48:24;;;;;;;4.15;1.70;;;;;;;18.37;100.00;99419.97;5576731;31;33646;-65
2023/07/26 09:51:30;;;;;;;2.83;1.70;;;;;;;18.74;100.00;99419.53;5589114;31;33721;-64
2023/07/26 09:54:34;;;;;;;4.72;1.70;;;;;;;18.79;100.00;99414.25;5589329;31;33659;-64
2023/07/26 09:57:40;;;;;;;2.58;1.60;;;;;;;19.95;100.00;99405.94;5576618;31;34065;-64
2023/07/26 10:00:48;;;;;;;5.68;1.70;;;;;;;19.99;100.00;99411.66;5589163;31;35045;-63
2023/07/26 10:03:54;;;;;;;2.30;1.65;;;;;;;20.47;100.00;99415.41;5589016;31;33896;-64
2023/07/26 10:07:00;;;;;;;3.30;1.50;;;;;;;21.57;100.00;99425.38;5590277;31;34744;-65
2023/07/26 10:10:06;;;;;;;3.08;1.45;;;;;;;21.63;100.00;99422.44;5589193;31;33789;-67
2023/07/26 10:13:10;;;;;;;3.37;1.52;;;;;;;20.79;100.00;99435.06;5589463;31;34070;-65
2023/07/26 10:16:13;;;;;;;3.10;1.40;;;;;;;20.65;100.00;99442.78;5589935;31;33548;-64
2023/07/26 10:19:18;;;;;;;2.65;1.45;;;;;;;19.52;100.00;99446.31;5576488;31;34159;-65
2023/07/26 10:22:23;;;;;;;3.70;1.60;;;;;;;19.32;100.00;99433.34;5589713;31;34375;-64
2023/07/26 10:25:28;;;;;;;2.92;1.40;;;;;;;19.37;100.00;99446.88;5576288;31;33965;-63
2023/07/26 10:28:33;;;;;;;3.42;1.37;;;;;;;19.18;100.00;99450.06;5589044;31;34754;-64
2023/07/26 10:31:37;;;;;;;2.00;1.60;;;;;;;18.91;100.00;99453.44;5589731;31;33666;-64
2023/07/26 10:34:40;;;;;;;3.00;1.50;;;;;;;19.19;100.00;99463.28;5589950;31;33784;-64
2023/07/26 10:37:46;;;;;;;3.20;1.60;;;;;;;18.81;100.00;99447.91;5588980;31;34200;-64
2023/07/26 10:40:50;;;;;;;3.00;1.58;;;;;;;18.74;100.00;99451.78;5589633;31;33709;-63
2023/07/26 10:44:06;;;;;;;2.65;1.50;;;;;;;18.79;100.00;99459.94;5589549;31;33855;-66
2023/07/26 10:47:10;;;;;;;2.28;1.30;;;;;;;18.97;100.00;99457.84;5588799;31;33840;-62
2023/07/26 10:50:24;;;;;;;2.95;1.50;;;;;;;18.85;100.00;99449.03;5589253;31;34563;-64
2023/07/26 10:53:37;;;;;;;3.50;1.35;;;;;;;19.05;100.00;99453.94;5589505;31;32053;-64
2023/07/26 10:56:40;;;;;;;2.90;1.60;;;;;;;18.97;100.00;99444.41;5588716;31;33856;-62
2023/07/26 11:00:16;;;;;;;2.05;1.60;;;;;;;19.05;100.00;99468.19;5589441;31;33339;-64
2023/07/26 11:03:25;;;;;;;2.00;1.60;;;;;;;18.99;100.00;99453.03;5588471;31;33933;-62
2023/07/26 11:06:49;;;;;;;4.78;1.80;;;;;;;19.05;100.00;99449.38;5589409;31;33746;-63
2023/07/26 11:10:19;;;;;;;5.28;1.90;;;;;;;19.29;100.00;99458.06;5589274;31;33929;-64
2023/07/26 11:13:29;;;;;;;3.22;1.95;;;;;;;18.76;100.00;99450.50;5589241;31;34526;-64
2023/07/26 11:16:32;;;;;;;2.25;1.58;;;;;;;18.67;100.00;99457.34;5588795;31;33627;-64
2023/07/26 11:19:46;;;;;;;3.72;1.67;;;;;;;18.58;100.00;99458.78;5588552;31;33711;-63
2023/07/26 11:22:50;;;;;;;2.17;1.50;;;;;;;18.49;100.00;99460.22;5589510;31;33362;-61
2023/07/26 11:25:58;;;;;;;2.17;1.35;;;;;;;19.93;100.00;99467.31;5589569;31;33042;-62
2023/07/26 11:29:01;;;;;;;2.75;1.30;;;;;;;21.33;100.00;99478.94;5589203;31;33140;-63
2023/07/26 11:32:05;;;;;;;2.00;1.10;;;;;;;22.07;100.00;99492.34;5588316;31;33775;-66
2023/07/26 11:35:08;;;;;;;2.37;1.30;;;;;;;21.02;100.00;99493.22;5588294;31;33705;-66
2023/07/26 11:38:14;;;;;;;2.12;1.33;;;;;;;20.22;100.00;99467.09;5588254;31;34343;-65
2023/07/26 11:41:18;;;;;;;1.80;1.10;;;;;;;20.31;100.00;99463.72;5589309;31;33777;-64
2023/07/26 11:44:22;;;;;;;1.85;1.40;;;;;;;20.68;100.00;99463.00;5588980;31;33844;-63
2023/07/26 11:47:25;;;;;;;2.85;1.17;;;;;;;20.66;100.00;99465.16;5588906;31;33733;-63
2023/07/26 11:50:29;;;;;;;4.80;1.50;;;;;;;20.65;100.00;99471.59;5587970;31;32908;-61
2023/07/26 11:53:41;;;;;;;2.78;1.40;;;;;;;20.70;100.00;99468.97;5588337;31;33015;-64
2023/07/26 11:56:50;;;;;;;1.65;1.30;;;;;;;21.09;100.00;99470.38;5589099;31;34717;-63
2023/07/26 12:00:00;;;;;;;4.12;1.35;;;;;;;20.51;100.00;99462.31;5588139;31;34638;-62
2023/07/26 12:03:04;;;;;;;;;;;;;;;22.20;99.00;99472.09;5588213;31;33726;-64
2023/07/26 12:06:09;;;;;;;2.33;1.20;;;;;;;21.64;99.35;99471.81;5588649;31;33941;-62
2023/07/26 12:09:14;;;;;;;2.37;1.10;;;;;;;22.70;94.96;99471.41;5587739;31;33954;-65
2023/07/26 12:12:18;;;;;;;1.55;1.20;;;;;;;22.14;93.61;99475.84;5587644;31;33916;-63
2023/07/26 12:15:22;;;;;;;4.03;1.15;;;;;;;22.58;92.51;99482.47;5587782;31;32972;-62
2023/07/26 12:18:27;;;;;;;4.05;1.05;;;;;;;21.48;100.00;99486.31;5588406;31;33806;-62
2023/07/26 12:21:30;;;;;;;3.72;1.25;;;;;;;22.20;97.23;99488.31;5588004;31;33837;-65
2023/07/26 12:24:49;;;;;;;4.65;1.33;;;;;;;22.16;93.51;99490.75;5587420;31;34785;-65
2023/07/26 12:27:52;;;;;;;3.30;1.10;;;;;;;20.74;100.00;99489.75;5576096;31;34156;-63
2023/07/26 12:30:58;;;;;;;2.17;1.00;;;;;;;20.48;100.00;99484.38;5591160;31;33519;-63
2023/07/26 12:34:02;;;;;;;3.87;1.00;;;;;;;22.36;92.75;99485.41;5590811;31;33278;-65
2023/07/26 12:37:05;;;;;;;2.45;0.70;;;;;;;23.72;76.83;99494.66;5590637;31;33793;-65
2023/07/26 12:40:08;;;;;;;3.17;0.80;;;;;;;25.69;64.36;99507.00;5590637;31;32538;-64
2023/07/26 12:43:29;;;;;;;1.85;0.77;;;;;;;24.02;69.22;99493.72;5590637;31;34745;-63
2023/07/26 12:46:35;;;;;;;4.78;0.80;;;;;;;23.86;69.19;99492.19;5589757;31;34501;-63
2023/07/26 12:49:58;;;;;;;4.10;0.90;;;;;;;24.47;68.00;99498.97;5589602;31;33525;-65
2023/07/26 12:53:01;;;;;;;2.03;0.70;;;;;;;23.64;71.33;99492.50;5589654;31;33664;-65
2023/07/26 12:56:06;;;;;;;1.45;0.70;;;;;;;24.97;66.10;99506.00;5590551;31;34031;-64
2023/07/26 12:59:10;;;;;;;1.52;0.68;;;;;;;25.99;58.87;99503.13;5590550;31;33688;-63
2023/07/26 13:02:13;;;;;;;2.15;0.50;;;;;;;26.90;53.58;99501.91;5590788;31;33240;-63
2023/07/26 13:05:18;;;;;;;3.70;0.60;;;;;;;23.35;70.38;99497.66;5589619;31;34832;-65
2023/07/26 13:08:22;;;;;;;1.45;0.60;;;;;;;22.11;84.49;99496.13;5590656;31;34820;-64
2023/07/26 13:11:25;;;;;;;1.27;0.50;;;;;;;20.99;99.66;99496.44;5589384;31;33867;-66
2023/07/26 13:14:28;;;;;;;0.90;0.40;;;;;;;20.92;100.00;99504.72;5589566;31;34709;-64
2023/07/26 13:17:31;;;;;;;0.95;0.40;;;;;;;20.79;100.00;99495.19;5590344;31;33282;-63
2023/07/26 13:20:35;;;;;;;1.35;0.40;;;;;;;20.78;100.00;99503.53;5590346;31;33908;-62
2023/07/26 13:23:38;;;;;;;2.62;0.40;;;;;;;20.77;100.00;99494.62;5589694;31;33669;-65
2023/07/26 13:26:41;;;;;;;2.15;0.52;;;;;;;20.50;100.00;99498.41;5590106;31;33733;-64
2023/07/26 13:29:44;;;;;;;2.10;0.40;;;;;;;21.93;98.12;99502.78;5590147;31;34504;-62
2023/07/26 13:32:48;;;;;;;2.08;0.40;;;;;;;23.84;76.60;99511.41;5589380;31;33815;-63
2023/07/26 13:35:51;;;;;;;1.65;0.45;;;;;;;22.12;88.03;99513.16;5589193;31;33754;-64
2023/07/26 13:38:55;;;;;;;5.00;0.45;;;;;;;21.45;99.84;99521.91;5589548;31;33821;-62
2023/07/26 13:41:58;;;;;;;1.00;0.30;;;;;;;20.80;100.00;99512.19;5590071;31;33852;-63
2023/07/26 13:45:01;;;;;;;0.52;0.40;;;;;;;20.54;100.00;99523.75;5589219;31;34814;-63
2023/07/26 13:48:05;;;;;;;3.12;0.50;;;;;;;20.14;100.00;99516.81;5590012;31;34580;-63
2023/07/26 13:51:08;;;;;;;2.08;0.40;;;;;;;20.38;100.00;99514.72;5589743;31;33818;-61
2023/07/26 13:54:12;;;;;;;1.77;0.50;;;;;;;20.59;100.00;99521.94;5589713;31;34152;-64
2023/07/26 13:57:15;;;;;;;1.37;0.37;;;;;;;20.38;100.00;99512.03;5590205;31;32499;-63
2023/07/26 14:00:18;;;;;;;4.28;0.40;;;;;;;20.76;99.31;99508.38;5589745;31;33924;-62
2023/07/26 14:03:22;;;;;;;1.08;0.30;;;;;;;20.48;100.00;99498.66;5588891;31;33616;-62
2023/07/26 14:06:27;;;;;;;1.02;0.32;;;;;;;20.34;96.79;99509.00;5589059;31;34331;-63
2023/07/26 14:09:31;;;;;;;0.45;0.10;;;;;;;20.20;91.71;99490.75;5589837;31;33896;-63
2023/07/26 14:12:33;;;;;;;0.95;0.30;;;;;;;22.13;76.39;99503.94;5588819;31;33770;-63
2023/07/26 14:15:37;;;;;;;3.58;0.30;;;;;;;25.36;58.24;99513.28;5589591;31;33931;-63
2023/07/26 14:18:40;;;;;;;1.65;0.40;;;;;;;25.83;52.20;99516.06;5588776;31;34501;-62
2023/07/26 14:21:43;;;;;;;0.88;0.30;;;;;;;22.03;67.94;99524.44;5588579;31;34475;-64